Time;durP1;ratioP1;P1;durP2;ratioP2;P2;SDS_P1;SDS_P2;PMS_P1;PMS_P2;Temp;Humidity;BMP_temperature;BMP_pressure;BME280_temperature;BME280_humidity;BME280_pressure;Samples;Min_cycle;Max_cycle;Signal;HPM_P1;HPM_P2
2021/01/18 00:03:20;;;;;;;;;;;4.10;99.90;;;;;;10410113;28;20015;-64
2021/01/18 00:08:22;;;;;;;;;;;4.20;99.90;;;;;;10462441;28;19925;-64
2021/01/18 00:13:24;;;;;;;;;;;4.20;99.90;;;;;;10411737;28;19957;-64
2021/01/18 00:18:25;;;;;;;;;;;4.20;99.90;;;;;;10416257;28;19969;-64
2021/01/18 00:23:26;;;;;;;;;;;4.20;99.90;;;;;;10431191;28;20023;-64
2021/01/18 00:28:28;;;;;;;;;;;4.10;99.90;;;;;;10417285;28;20321;-64
2021/01/18 00:33:29;;;;;;;;;;;4.10;99.90;;;;;;10405788;28;20048;-64
2021/01/18 00:38:31;;;;;;;;;;;4.10;99.90;;;;;;10414539;28;19925;-64
2021/01/18 00:43:32;;;;;;;;;;;4.10;99.90;;;;;;10410116;28;20355;-64
2021/01/18 00:48:34;;;;;;;;;;;4.20;99.90;;;;;;10437204;28;19968;-64
2021/01/18 00:53:35;;;;;;;;;;;4.10;99.90;;;;;;10430368;28;20043;-64
2021/01/18 00:58:36;;;;;;;;;;;4.10;99.90;;;;;;10439457;28;20020;-64
2021/01/18 01:03:37;;;;;;;;;;;4.10;99.90;;;;;;10428164;28;19994;-64
2021/01/18 01:08:39;;;;;;;;;;;4.10;99.90;;;;;;10434661;28;19928;-64
2021/01/18 01:13:40;;;;;;;;;;;4.00;99.90;;;;;;10425024;28;19971;-64
2021/01/18 01:18:42;;;;;;;;;;;4.10;99.90;;;;;;10433126;28;19925;-64
2021/01/18 01:23:43;;;;;;;;;;;4.20;99.90;;;;;;10451678;28;20019;-64
2021/01/18 01:28:45;;;;;;;;;;;4.10;99.90;;;;;;10467995;28;19933;-64
2021/01/18 01:33:46;;;;;;;;;;;4.10;99.90;;;;;;10435581;28;20384;-64
2021/01/18 01:38:47;;;;;;;;;;;4.10;99.90;;;;;;10435254;28;20392;-64
2021/01/18 01:43:49;;;;;;;;;;;4.20;99.90;;;;;;10421738;28;20401;-64
2021/01/18 01:48:50;;;;;;;;;;;4.10;99.90;;;;;;10422506;28;20087;-64
2021/01/18 01:53:51;;;;;;;;;;;4.20;99.90;;;;;;10431275;28;20366;-64
2021/01/18 01:58:56;;;;;;;;;;;4.20;99.90;;;;;;10434567;28;19977;-64
2021/01/18 02:03:58;;;;;;;;;;;4.20;99.90;;;;;;10416830;28;20356;-64
2021/01/18 02:08:59;;;;;;;;;;;4.20;99.90;;;;;;10431914;28;19928;-64
2021/01/18 02:14:19;;;;;;;;;;;4.20;99.90;;;;;;10444977;28;19931;-63
2021/01/18 02:19:21;;;;;;;;;;;4.30;99.90;;;;;;10447328;28;19925;-64
2021/01/18 02:24:40;;;;;;;;;;;4.30;99.90;;;;;;10427197;28;20016;-64
2021/01/18 02:30:00;;;;;;;;;;;4.20;99.90;;;;;;10426851;28;19925;-64
2021/01/18 02:35:22;;;;;;;;;;;4.30;99.90;;;;;;10423452;28;20433;-64
2021/01/18 02:40:26;;;;;;;;;;;4.40;99.90;;;;;;10445151;28;20007;-64
2021/01/18 02:45:27;;;;;;;;;;;4.50;99.90;;;;;;10444851;28;20016;-64
2021/01/18 02:50:30;;;;;;;;;;;4.50;99.90;;;;;;10422268;28;19983;-64
2021/01/18 02:55:32;;;;;;;;;;;4.40;99.90;;;;;;10440946;28;20023;-64
2021/01/18 03:00:42;;;;;;;;;;;4.40;99.90;;;;;;10439955;28;19979;-64
2021/01/18 03:05:46;;;;;;;;;;;4.40;99.90;;;;;;10419300;28;20016;-64
2021/01/18 03:10:52;;;;;;;;;;;4.40;99.90;;;;;;10448186;28;19924;-64
2021/01/18 03:15:55;;;;;;;;;;;4.40;99.90;;;;;;10430135;28;20374;-64
2021/01/18 03:20:57;;;;;;;;;;;4.50;99.90;;;;;;10435803;28;19975;-64
2021/01/18 03:25:58;;;;;;;;;;;4.50;99.90;;;;;;10453824;28;19967;-64
2021/01/18 03:31:00;;;;;;;;;;;4.50;99.90;;;;;;10446138;28;19925;-64
2021/01/18 03:36:01;;;;;;;;;;;4.50;99.90;;;;;;10429944;28;20027;-64
2021/01/18 03:41:03;;;;;;;;;;;4.50;99.90;;;;;;10417866;28;19933;-64
2021/01/18 03:46:07;;;;;;;;;;;4.50;99.90;;;;;;10431546;28;20371;-63
2021/01/18 03:51:08;;;;;;;;;;;4.60;99.90;;;;;;10450447;28;19929;-64
2021/01/18 03:56:10;;;;;;;;;;;4.60;99.90;;;;;;10429325;28;20020;-64
2021/01/18 04:01:11;;;;;;;;;;;4.60;99.90;;;;;;10437159;28;19968;-64
2021/01/18 04:06:12;;;;;;;;;;;4.60;99.90;;;;;;10463366;28;19936;-64
2021/01/18 04:11:14;;;;;;;;;;;4.60;99.90;;;;;;10423719;28;19929;-64
2021/01/18 04:16:15;;;;;;;;;;;4.60;99.90;;;;;;10411453;28;19940;-64
2021/01/18 04:21:17;;;;;;;;;;;4.60;99.90;;;;;;10408065;28;20390;-64
2021/01/18 04:26:18;;;;;;;;;;;4.50;99.90;;;;;;10428485;28;19925;-64
2021/01/18 04:31:19;;;;;;;;;;;4.60;99.90;;;;;;10413748;28;19999;-64
2021/01/18 04:36:21;;;;;;;;;;;4.50;99.90;;;;;;10437405;28;20431;-64
2021/01/18 04:41:22;;;;;;;;;;;4.60;99.90;;;;;;10423745;28;20040;-64
2021/01/18 04:46:28;;;;;;;;;;;4.60;99.90;;;;;;10419369;28;19967;-64
2021/01/18 04:51:32;;;;;;;;;;;4.70;99.90;;;;;;10409999;28;20364;-64
2021/01/18 04:56:50;;;;;;;;;;;4.70;99.90;;;;;;10432360;28;19925;-64
2021/01/18 05:02:00;;;;;;;;;;;4.70;99.90;;;;;;10429390;28;19979;-64
2021/01/18 05:07:11;;;;;;;;;;;4.70;99.90;;;;;;10436162;28;19935;-64
2021/01/18 05:12:13;;;;;;;;;;;4.70;99.90;;;;;;10418711;28;19979;-64
2021/01/18 05:17:31;;;;;;;;;;;4.70;99.90;;;;;;10414102;28;20388;-64
2021/01/18 05:22:32;;;;;;;;;;;4.70;99.90;;;;;;10431784;28;20342;-64
2021/01/18 05:27:34;;;;;;;;;;;4.80;99.90;;;;;;10438403;28;19964;-64
2021/01/18 05:32:35;;;;;;;;;;;4.70;99.90;;;;;;10439607;28;20016;-64
2021/01/18 05:37:55;;;;;;;;;;;4.60;99.90;;;;;;10434758;28;19929;-64
2021/01/18 05:43:00;;;;;;;;;;;4.70;99.90;;;;;;10437600;28;19960;-64
2021/01/18 05:48:02;;;;;;;;;;;4.70;99.90;;;;;;10404174;28;20324;-64
2021/01/18 05:53:23;;;;;;;;;;;4.60;99.90;;;;;;10414881;28;20011;-64
2021/01/18 05:58:31;;;;;;;;;;;4.50;99.90;;;;;;10429976;28;19956;-63
2021/01/18 06:03:33;;;;;;;;;;;4.30;99.90;;;;;;10415568;28;19929;-64
2021/01/18 06:08:34;;;;;;;;;;;4.30;99.90;;;;;;10419692;28;20015;-64
2021/01/18 06:13:35;;;;;;;;;;;4.30;99.90;;;;;;10445280;28;19972;-64
2021/01/18 06:18:40;;;;;;;;;;;4.30;99.90;;;;;;10437925;28;19940;-64
2021/01/18 06:23:42;;;;;;;;;;;4.30;99.90;;;;;;10426304;28;19924;-64
2021/01/18 06:28:43;;;;;;;;;;;4.30;99.90;;;;;;10434496;28;20000;-64
2021/01/18 06:33:48;;;;;;;;;;;4.30;99.90;;;;;;10464503;28;19924;-64
2021/01/18 06:38:50;;;;;;;;;;;4.10;99.90;;;;;;10431661;28;20373;-64
2021/01/18 06:43:51;;;;;;;;;;;4.20;99.90;;;;;;10423674;28;19976;-64
2021/01/18 06:48:53;;;;;;;;;;;4.20;99.90;;;;;;10447838;28;19955;-64
2021/01/18 06:53:55;;;;;;;;;;;4.20;99.90;;;;;;10430266;28;19975;-64
2021/01/18 06:59:02;;;;;;;;;;;4.20;99.90;;;;;;10428145;28;19929;-64
2021/01/18 07:04:07;;;;;;;;;;;4.20;99.90;;;;;;10438618;28;20016;-64
2021/01/18 07:09:13;;;;;;;;;;;4.20;99.90;;;;;;10408357;28;19929;-64
2021/01/18 07:14:27;;;;;;;;;;;4.30;99.90;;;;;;10407453;28;19928;-64
2021/01/18 07:19:33;;;;;;;;;;;4.30;99.90;;;;;;10423463;28;20365;-64
2021/01/18 07:24:37;;;;;;;;;;;4.30;99.90;;;;;;10427685;28;20020;-64
2021/01/18 07:29:54;;;;;;;;;;;4.30;99.90;;;;;;10439428;28;19925;-64
2021/01/18 07:34:56;;;;;;;;;;;4.30;99.90;;;;;;10446411;28;19964;-64
2021/01/18 07:40:10;;;;;;;;;;;4.30;99.90;;;;;;10446258;28;20369;-64
2021/01/18 07:45:13;;;;;;;;;;;4.30;99.90;;;;;;10421937;28;19924;-64
2021/01/18 07:50:25;;;;;;;;;;;4.30;99.90;;;;;;10410057;28;19951;-63
2021/01/18 07:55:27;;;;;;;;;;;4.40;99.90;;;;;;10407006;28;20023;-64
2021/01/18 08:00:28;;;;;;;;;;;4.40;99.90;;;;;;10440928;28;19947;-64
2021/01/18 08:05:30;;;;;;;;;;;4.30;99.90;;;;;;10425399;28;20012;-64
2021/01/18 08:10:49;;;;;;;;;;;4.40;99.90;;;;;;10439512;28;19933;-64
2021/01/18 08:15:58;;;;;;;;;;;4.40;99.90;;;;;;10440523;28;19929;-64
2021/01/18 08:21:00;;;;;;;;;;;4.40;99.90;;;;;;10408886;28;19925;-64
2021/01/18 08:26:04;;;;;;;;;;;4.50;99.90;;;;;;10452594;28;20008;-64
2021/01/18 08:31:13;;;;;;;;;;;4.60;99.90;;;;;;10420287;28;19929;-64
2021/01/18 08:36:44;;;;;;;;;;;4.70;99.90;;;;;;10426325;28;19935;-64
2021/01/18 08:41:46;;;;;;;;;;;4.90;99.90;;;;;;10401923;28;19982;-64
2021/01/18 08:46:47;;;;;;;;;;;4.90;99.90;;;;;;10412856;28;20059;-64
2021/01/18 08:51:50;;;;;;;;;;;5.20;99.90;;;;;;10414387;28;20444;-67
2021/01/18 08:56:51;;;;;;;;;;;5.20;99.90;;;;;;10432341;28;20007;-67
2021/01/18 09:01:59;;;;;;;;;;;5.10;99.90;;;;;;10438997;28;20019;-68
2021/01/18 09:07:02;;;;;;;;;;;5.20;99.90;;;;;;10435828;28;19925;-67
2021/01/18 09:12:04;;;;;;;;;;;5.20;99.90;;;;;;10441791;28;19970;-67
2021/01/18 09:17:10;;;;;;;;;;;5.20;99.90;;;;;;10432232;28;19977;-67
2021/01/18 09:22:12;;;;;;;;;;;5.20;99.90;;;;;;10428134;28;19928;-67
2021/01/18 09:27:15;;;;;;;;;;;5.20;99.90;;;;;;10423200;28;20597;-67
2021/01/18 09:32:16;;;;;;;;;;;5.30;99.90;;;;;;10447969;28;20028;-67
2021/01/18 09:37:20;;;;;;;;;;;5.30;99.90;;;;;;10438612;28;19926;-67
2021/01/18 09:42:22;;;;;;;;;;;5.40;99.90;;;;;;10478771;28;20016;-67
2021/01/18 09:47:24;;;;;;;;;;;5.30;99.90;;;;;;10454740;28;20067;-67
2021/01/18 09:52:25;;;;;;;;;;;5.40;99.90;;;;;;10451041;28;20023;-68
2021/01/18 09:57:28;;;;;;;;;;;5.50;99.90;;;;;;10448579;28;19932;-67
2021/01/18 10:02:30;;;;;;;;;;;5.40;99.90;;;;;;10473224;28;19972;-67
2021/01/18 10:07:33;;;;;;;;;;;5.40;99.90;;;;;;10433401;28;20402;-67
2021/01/18 10:12:37;;;;;;;;;;;5.50;99.90;;;;;;10447931;28;20741;-67
2021/01/18 10:17:39;;;;;;;;;;;5.60;99.90;;;;;;10448866;28;19960;-67
2021/01/18 10:22:40;;;;;;;;;;;5.60;99.90;;;;;;10449018;28;19925;-67
2021/01/18 10:27:48;;;;;;;;;;;5.60;99.90;;;;;;10448012;28;20015;-67
2021/01/18 10:32:50;;;;;;;;;;;5.40;99.90;;;;;;10447512;28;20019;-67
2021/01/18 10:37:52;;;;;;;;;;;5.50;99.90;;;;;;10443702;28;19925;-67
2021/01/18 10:42:54;;;;;;;;;;;5.70;99.90;;;;;;10445140;28;19983;-67
2021/01/18 10:47:58;;;;;;;;;;;5.80;99.90;;;;;;10445370;28;19936;-67
2021/01/18 10:53:09;;;;;;;;;;;5.70;99.90;;;;;;10444245;28;20027;-67
2021/01/18 10:58:10;;;;;;;;;;;5.70;99.90;;;;;;10445402;28;20043;-67
2021/01/18 11:03:12;;;;;;;;;;;5.60;99.90;;;;;;10444575;28;19932;-67
2021/01/18 11:08:13;;;;;;;;;;;5.70;99.90;;;;;;10432586;28;20003;-67
2021/01/18 11:13:18;;;;;;;;;;;5.80;99.90;;;;;;10446965;28;19936;-67
2021/01/18 11:18:20;;;;;;;;;;;5.90;99.90;;;;;;10446747;28;19968;-67
2021/01/18 11:23:21;;;;;;;;;;;6.00;99.90;;;;;;10446458;28;19982;-67
2021/01/18 11:28:23;;;;;;;;;;;6.20;99.90;;;;;;10446342;28;19964;-67
2021/01/18 11:33:24;;;;;;;;;;;6.30;99.90;;;;;;10445524;28;20349;-67
2021/01/18 11:38:26;;;;;;;;;;;6.40;99.90;;;;;;10445906;28;19932;-67
2021/01/18 11:43:27;;;;;;;;;;;6.40;99.90;;;;;;10445048;28;20219;-67
2021/01/18 11:48:28;;;;;;;;;;;6.50;99.90;;;;;;10444921;28;19976;-67
2021/01/18 11:53:30;;;;;;;;;;;6.50;99.90;;;;;;10444844;28;20372;-67
2021/01/18 11:58:32;;;;;;;;;;;6.60;99.90;;;;;;10444566;28;20023;-67
2021/01/18 12:03:33;;;;;;;;;;;6.80;99.90;;;;;;10445546;28;19967;-67
2021/01/18 12:08:35;;;;;;;;;;;6.80;99.90;;;;;;10433762;28;19956;-67
2021/01/18 12:13:36;;;;;;;;;;;6.90;99.90;;;;;;10445196;28;19925;-67
2021/01/18 12:18:38;;;;;;;;;;;6.80;99.90;;;;;;10444374;28;20424;-68
2021/01/18 12:23:39;;;;;;;;;;;6.80;99.90;;;;;;10444934;28;19964;-67
2021/01/18 12:28:40;;;;;;;;;;;6.70;99.90;;;;;;10443310;28;19971;-67
2021/01/18 12:33:42;;;;;;;;;;;6.70;99.90;;;;;;10444256;28;19998;-68
2021/01/18 12:38:44;;;;;;;;;;;6.60;99.90;;;;;;10443534;28;20289;-67
2021/01/18 12:43:45;;;;;;;;;;;6.70;99.90;;;;;;10442577;28;20408;-67
2021/01/18 12:48:46;;;;;;;;;;;6.80;99.90;;;;;;10442136;28;19929;-67
2021/01/18 12:53:48;;;;;;;;;;;6.90;99.90;;;;;;10442955;28;19925;-68
2021/01/18 12:58:49;;;;;;;;;;;6.90;99.90;;;;;;10441738;28;19975;-68
2021/01/18 13:03:50;;;;;;;;;;;6.90;99.90;;;;;;10447062;28;20009;-67
2021/01/18 13:08:51;;;;;;;;;;;7.10;99.90;;;;;;10438941;28;20449;-67
2021/01/18 13:13:53;;;;;;;;;;;7.10;99.90;;;;;;10450623;28;20304;-68
2021/01/18 13:18:54;;;;;;;;;;;7.10;99.90;;;;;;10450111;28;19928;-67
2021/01/18 13:23:56;;;;;;;;;;;7.10;99.90;;;;;;10446922;28;20010;-68
2021/01/18 13:28:58;;;;;;;;;;;7.20;99.90;;;;;;10447926;28;19925;-68
2021/01/18 13:33:59;;;;;;;;;;;7.10;99.90;;;;;;10449934;28;19925;-67
2021/01/18 13:39:01;;;;;;;;;;;7.10;99.90;;;;;;10438179;28;19929;-67
2021/01/18 13:44:03;;;;;;;;;;;7.10;99.90;;;;;;10490432;28;20004;-68
2021/01/18 13:49:05;;;;;;;;;;;7.00;99.90;;;;;;10474900;28;19932;-67
2021/01/18 13:54:06;;;;;;;;;;;7.10;99.90;;;;;;10485684;28;19956;-67
2021/01/18 13:59:08;;;;;;;;;;;7.00;99.90;;;;;;10449356;28;20205;-67
2021/01/18 14:04:09;;;;;;;;;;;6.90;99.90;;;;;;10448254;28;19986;-67
2021/01/18 14:09:14;;;;;;;;;;;7.00;99.90;;;;;;10442944;28;19929;-67
2021/01/18 14:14:15;;;;;;;;;;;6.80;99.90;;;;;;10422303;28;19978;-67
2021/01/18 14:19:17;;;;;;;;;;;6.80;99.90;;;;;;10449010;28;20023;-67
2021/01/18 14:24:18;;;;;;;;;;;6.80;99.90;;;;;;10446169;28;20078;-67
2021/01/18 14:29:19;;;;;;;;;;;6.70;99.90;;;;;;10447382;28;19975;-67
2021/01/18 14:34:21;;;;;;;;;;;6.70;99.90;;;;;;10447734;28;19960;-68
2021/01/18 14:39:23;;;;;;;;;;;6.70;99.90;;;;;;10447875;28;19931;-67
2021/01/18 14:44:24;;;;;;;;;;;6.80;99.90;;;;;;10446093;28;19990;-67
2021/01/18 14:49:25;;;;;;;;;;;6.80;99.90;;;;;;10436648;28;19963;-67
2021/01/18 14:54:27;;;;;;;;;;;6.70;99.90;;;;;;10447545;28;19931;-67
2021/01/18 14:59:28;;;;;;;;;;;6.60;99.90;;;;;;10446647;28;19960;-67
2021/01/18 15:04:30;;;;;;;;;;;6.60;99.90;;;;;;10437896;28;19968;-67
2021/01/18 15:09:31;;;;;;;;;;;6.60;99.90;;;;;;10432542;28;19928;-67
2021/01/18 15:14:33;;;;;;;;;;;6.70;99.90;;;;;;10444495;28;20429;-67
2021/01/18 15:19:34;;;;;;;;;;;6.70;99.90;;;;;;10446422;28;20333;-67
2021/01/18 15:24:36;;;;;;;;;;;6.70;99.90;;;;;;10445039;28;19975;-67
2021/01/18 15:29:37;;;;;;;;;;;6.60;99.90;;;;;;10444740;28;20293;-67
2021/01/18 15:34:39;;;;;;;;;;;6.40;99.90;;;;;;10459491;28;19972;-67
2021/01/18 15:39:40;;;;;;;;;;;6.40;99.90;;;;;;10461605;28;20012;-67
2021/01/18 15:44:41;;;;;;;;;;;6.30;99.90;;;;;;10444830;28;20007;-67
2021/01/18 15:49:43;;;;;;;;;;;6.20;99.90;;;;;;10443869;28;19968;-67
2021/01/18 15:54:44;;;;;;;;;;;6.00;99.90;;;;;;10445191;28;19968;-67
2021/01/18 15:59:46;;;;;;;;;;;6.00;99.90;;;;;;10484702;28;20023;-67
2021/01/18 16:04:47;;;;;;;;;;;6.00;99.90;;;;;;10484628;28;20347;-68
2021/01/18 16:09:48;;;;;;;;;;;5.90;99.90;;;;;;10487393;28;19936;-67
2021/01/18 16:14:50;;;;;;;;;;;5.90;99.90;;;;;;10442162;28;20011;-67
2021/01/18 16:19:51;;;;;;;;;;;6.00;99.90;;;;;;10442647;28;20006;-65
2021/01/18 16:24:53;;;;;;;;;;;6.00;99.90;;;;;;10441337;28;20305;-65
2021/01/18 16:29:54;;;;;;;;;;;5.90;99.90;;;;;;10437474;28;19972;-64
2021/01/18 16:34:55;;;;;;;;;;;5.90;99.90;;;;;;10441050;28;20020;-65
2021/01/18 16:39:56;;;;;;;;;;;5.80;99.90;;;;;;10442756;28;20018;-65
2021/01/18 16:44:58;;;;;;;;;;;5.80;99.90;;;;;;10443727;28;19959;-65
2021/01/18 16:49:59;;;;;;;;;;;5.70;99.90;;;;;;10443027;28;20319;-65
2021/01/18 16:55:00;;;;;;;;;;;5.60;99.90;;;;;;10442966;28;20011;-64
2021/01/18 17:00:04;;;;;;;;;;;5.60;99.90;;;;;;10442141;28;19987;-65
2021/01/18 17:05:06;;;;;;;;;;;5.60;99.90;;;;;;10443365;28;20016;-64
2021/01/18 17:10:08;;;;;;;;;;;5.60;99.90;;;;;;10446807;28;20015;-65
2021/01/18 17:15:10;;;;;;;;;;;5.60;99.90;;;;;;10440821;28;20007;-64
2021/01/18 17:20:11;;;;;;;;;;;5.60;99.90;;;;;;10454100;28;20011;-64
2021/01/18 17:25:13;;;;;;;;;;;5.70;99.90;;;;;;10461161;28;20016;-64
2021/01/18 17:30:14;;;;;;;;;;;5.60;99.90;;;;;;10444195;28;19924;-65
2021/01/18 17:35:15;;;;;;;;;;;5.60;99.90;;;;;;10456480;28;19976;-64
2021/01/18 17:40:17;;;;;;;;;;;5.50;99.90;;;;;;10447020;28;19936;-64
2021/01/18 17:45:18;;;;;;;;;;;5.50;99.90;;;;;;10442364;28;20296;-64
2021/01/18 17:50:19;;;;;;;;;;;5.50;99.90;;;;;;10440119;28;19928;-65
2021/01/18 17:55:21;;;;;;;;;;;5.50;99.90;;;;;;10449708;28;19967;-64
2021/01/18 18:00:23;;;;;;;;;;;5.40;99.90;;;;;;10448610;28;20503;-65
2021/01/18 18:05:24;;;;;;;;;;;5.40;99.90;;;;;;10448830;28;20367;-64
2021/01/18 18:10:25;;;;;;;;;;;5.50;99.90;;;;;;10448633;28;20136;-64
2021/01/18 18:15:27;;;;;;;;;;;5.50;99.90;;;;;;10430530;28;20388;-65
2021/01/18 18:20:28;;;;;;;;;;;5.60;99.90;;;;;;10448470;28;20444;-64
2021/01/18 18:25:30;;;;;;;;;;;5.50;99.90;;;;;;10447740;28;20346;-64
